createdAt,value
2022-09-20T00:01:32.511Z,8.82
2022-09-20T00:04:01.030Z,7.80
2022-09-20T00:06:29.811Z,8.95
2022-09-20T00:08:57.769Z,7.40
2022-09-20T00:11:26.370Z,9.57
2022-09-20T00:13:56.248Z,9.73
2022-09-20T00:16:25.449Z,10.02
2022-09-20T00:18:53.860Z,10.27
2022-09-20T00:21:22.285Z,12.18
2022-09-20T00:23:49.629Z,12.88
2022-09-20T00:26:17.593Z,17.30
2022-09-20T00:28:46.942Z,17.60
2022-09-20T00:31:14.706Z,19.50
2022-09-20T00:34:00.539Z,18.95
2022-09-20T00:36:27.809Z,21.30
2022-09-20T00:39:01.932Z,19.50
2022-09-20T00:41:29.450Z,17.92
2022-09-20T00:43:56.994Z,15.48
2022-09-20T00:46:27.150Z,17.67
2022-09-20T00:48:56.262Z,24.02
2022-09-20T00:51:29.154Z,16.00
2022-09-20T00:53:58.194Z,15.27
2022-09-20T00:56:35.698Z,14.52
2022-09-20T00:59:07.310Z,13.40
2022-09-20T01:01:34.570Z,13.25
2022-09-20T01:04:01.837Z,12.57
2022-09-20T01:06:29.760Z,15.00
2022-09-20T01:08:58.005Z,14.15
2022-09-20T01:11:25.874Z,15.55
2022-09-20T01:13:53.078Z,12.10
2022-09-20T01:16:21.189Z,16.02
2022-09-20T01:18:48.903Z,15.35
2022-09-20T01:21:16.877Z,13.88
2022-09-20T01:23:43.983Z,16.02
2022-09-20T01:26:11.069Z,15.40
2022-09-20T01:28:38.751Z,19.13
2022-09-20T01:31:11.652Z,13.52
2022-09-20T01:33:45.290Z,13.35
2022-09-20T01:36:14.110Z,14.70
2022-09-20T01:38:41.242Z,14.73
2022-09-20T01:41:14.580Z,17.63
2022-09-20T01:43:47.577Z,13.63
2022-09-20T01:46:17.752Z,16.95
2022-09-20T01:48:44.954Z,13.85
2022-09-20T01:51:30.924Z,15.95
2022-09-20T01:54:10.309Z,16.17
2022-09-20T01:56:37.797Z,16.08
2022-09-20T01:59:23.067Z,13.40
2022-09-20T02:01:51.322Z,13.57
2022-09-20T02:04:24.595Z,9.77
2022-09-20T02:06:57.790Z,9.35
2022-09-20T02:09:44.204Z,9.50
2022-09-20T02:12:23.541Z,7.93
2022-09-20T02:15:10.169Z,7.28
2022-09-20T02:17:37.448Z,7.15
2022-09-20T02:20:04.658Z,9.52
2022-09-20T02:22:42.741Z,10.57
2022-09-20T02:25:21.431Z,8.07
2022-09-20T02:27:53.872Z,10.23
2022-09-20T02:30:27.966Z,7.10
2022-09-20T02:33:07.498Z,7.82
2022-09-20T02:35:53.480Z,8.38
2022-09-20T02:38:39.575Z,8.77
2022-09-20T02:41:27.930Z,7.82
2022-09-20T02:44:00.242Z,11.40
2022-09-20T02:46:31.299Z,8.88
2022-09-20T02:49:05.665Z,9.52
2022-09-20T02:51:44.490Z,8.82
2022-09-20T02:54:23.296Z,8.30
2022-09-20T02:57:02.658Z,12.52
2022-09-20T02:59:32.775Z,11.48
2022-09-20T03:02:18.556Z,12.57
2022-09-20T03:04:45.891Z,11.55
2022-09-20T03:07:31.852Z,11.50
2022-09-20T03:10:18.022Z,9.23
2022-09-20T03:12:54.114Z,9.68
2022-09-20T03:15:21.452Z,9.85
2022-09-20T03:17:48.538Z,8.77
2022-09-20T03:20:25.450Z,10.68
2022-09-20T03:23:08.073Z,7.65
2022-09-20T03:25:35.412Z,11.63
2022-09-20T03:28:21.551Z,9.02
2022-09-20T03:31:07.421Z,12.10
2022-09-20T03:33:52.658Z,10.77
2022-09-20T03:36:29.077Z,10.30
2022-09-20T03:38:56.418Z,10.10
2022-09-20T03:41:23.528Z,12.15
2022-09-20T03:43:53.842Z,11.38
2022-09-20T03:46:22.966Z,13.17
2022-09-20T03:49:02.486Z,12.65
2022-09-20T03:51:34.375Z,9.98
2022-09-20T03:54:01.636Z,10.02
2022-09-20T03:56:31.993Z,10.85
2022-09-20T03:59:17.825Z,13.63
2022-09-20T04:01:47.863Z,11.85
2022-09-20T04:04:24.122Z,13.52
2022-09-20T04:06:58.454Z,12.93
2022-09-20T04:09:44.607Z,13.15
2022-09-20T04:12:29.284Z,11.32
2022-09-20T04:15:15.781Z,13.27
2022-09-20T04:18:00.818Z,15.30
2022-09-20T04:20:38.626Z,13.85
2022-09-20T04:23:14.985Z,9.10
2022-09-20T04:25:45.213Z,7.30
2022-09-20T04:28:16.101Z,6.15
2022-09-20T04:30:44.123Z,5.30
2022-09-20T04:33:22.873Z,5.35
2022-09-20T04:36:27.797Z,5.93
2022-09-20T04:39:24.229Z,7.03
2022-09-20T04:42:09.517Z,5.95
2022-09-20T04:44:49.015Z,7.05
2022-09-20T04:47:25.432Z,5.03
2022-09-20T04:50:06.350Z,5.15
2022-09-20T04:52:51.796Z,6.40
2022-09-20T04:55:18.956Z,5.32
2022-09-20T04:58:05.099Z,6.05
2022-09-20T05:00:43.630Z,5.68
2022-09-20T05:03:11.119Z,5.95
2022-09-20T05:05:57.045Z,5.55
2022-09-20T05:08:37.200Z,6.68
2022-09-20T05:11:23.604Z,6.50
2022-09-20T05:13:50.706Z,6.68
2022-09-20T05:16:39.602Z,7.63
2022-09-20T05:19:21.093Z,7.05
2022-09-20T05:21:51.363Z,7.03
2022-09-20T05:24:18.458Z,8.27
2022-09-20T05:27:08.993Z,9.15
2022-09-20T05:29:36.169Z,8.67
2022-09-20T05:32:18.552Z,6.13
2022-09-20T05:35:01.153Z,6.10
2022-09-20T05:37:34.521Z,7.57
2022-09-20T05:40:07.670Z,6.07
2022-09-20T05:42:34.959Z,8.02
2022-09-20T05:45:02.059Z,10.80
2022-09-20T05:47:50.517Z,8.88
2022-09-20T05:50:29.512Z,5.57
2022-09-20T05:53:15.293Z,6.50
2022-09-20T05:55:42.473Z,7.25
2022-09-20T05:58:18.598Z,9.70
2022-09-20T06:00:49.066Z,8.65
2022-09-20T06:03:19.436Z,7.72
2022-09-20T06:05:46.811Z,5.68
2022-09-20T06:08:20.243Z,7.60
2022-09-20T06:10:53.279Z,9.10
2022-09-20T06:13:30.814Z,9.38
2022-09-20T06:16:00.453Z,8.73
2022-09-20T06:18:34.696Z,9.50
2022-09-20T06:21:04.654Z,6.70
2022-09-20T06:23:32.064Z,8.73
2022-09-20T06:26:19.899Z,8.82
2022-09-20T06:28:49.680Z,7.45
2022-09-20T06:31:17.954Z,8.52
2022-09-20T06:33:59.749Z,9.40
2022-09-20T06:36:51.334Z,12.45
2022-09-20T06:39:51.125Z,10.27
2022-09-20T06:42:18.521Z,10.32
2022-09-20T06:44:45.651Z,7.57
2022-09-20T06:47:13.772Z,9.27
2022-09-20T06:49:44.467Z,10.38
2022-09-20T06:52:14.420Z,10.02
2022-09-20T06:54:45.646Z,10.68
2022-09-20T06:59:39.954Z,9.00
2022-09-20T07:02:08.229Z,9.77
2022-09-20T07:04:35.712Z,9.35
2022-09-20T07:07:09.504Z,9.43
2022-09-20T07:09:37.032Z,9.32
2022-09-20T07:12:04.245Z,12.65
2022-09-20T07:14:31.433Z,9.88
2022-09-20T07:16:58.532Z,8.52
2022-09-20T07:19:25.683Z,12.40
2022-09-20T07:21:52.897Z,12.30
2022-09-20T07:24:20.072Z,8.45
2022-09-20T07:26:57.787Z,9.55
2022-09-20T07:29:25.686Z,8.70
2022-09-20T07:31:53.049Z,11.73
2022-09-20T07:34:20.510Z,9.20
2022-09-20T07:36:48.202Z,8.57
2022-09-20T07:39:15.624Z,9.60
2022-09-20T07:41:45.485Z,10.10
2022-09-20T07:44:24.304Z,9.68
2022-09-20T07:46:59.432Z,11.73
2022-09-20T07:49:27.437Z,8.75
2022-09-20T07:51:54.943Z,10.90
2022-09-20T07:54:22.185Z,6.88
2022-09-20T07:56:49.292Z,8.27
2022-09-20T07:59:16.714Z,7.97
2022-09-20T08:01:44.200Z,10.05
2022-09-20T08:04:11.658Z,7.45
2022-09-20T08:06:39.971Z,6.00
2022-09-20T08:09:10.967Z,9.38
2022-09-20T08:11:39.475Z,8.85
2022-09-20T08:14:08.312Z,9.38
2022-09-20T08:16:40.651Z,8.68
2022-09-20T08:19:08.192Z,7.50
2022-09-20T08:21:37.928Z,8.18
2022-09-20T08:24:05.286Z,7.57
2022-09-20T08:26:32.466Z,9.30
2022-09-20T08:29:01.269Z,8.90
2022-09-20T08:31:31.575Z,10.23
2022-09-20T08:33:59.261Z,13.07
2022-09-20T08:36:28.976Z,9.10
2022-09-20T08:41:48.958Z,9.90
2022-09-20T08:44:28.762Z,13.45
2022-09-20T08:47:02.702Z,14.20
2022-09-20T08:49:30.674Z,17.55
2022-09-20T08:51:58.704Z,14.95
2022-09-20T08:54:32.274Z,21.08
2022-09-20T08:57:05.358Z,20.83
2022-09-20T08:59:32.712Z,19.75
2022-09-20T09:02:00.026Z,16.60
2022-09-20T09:04:33.846Z,17.55
2022-09-20T09:07:01.022Z,17.02
2022-09-20T09:09:29.103Z,16.15
2022-09-20T09:11:58.568Z,17.00
2022-09-20T09:14:51.158Z,13.23
2022-09-20T09:17:19.882Z,13.23
2022-09-20T09:19:57.202Z,19.35
2022-09-20T09:22:26.610Z,12.23
2022-09-20T09:25:12.617Z,12.18
2022-09-20T09:27:58.707Z,11.77
2022-09-20T09:30:30.438Z,9.48
2022-09-20T09:33:16.170Z,11.35
2022-09-20T09:35:43.568Z,8.88
2022-09-20T09:38:19.117Z,8.65
2022-09-20T09:40:54.202Z,10.35
2022-09-20T09:43:23.906Z,12.88
2022-09-20T09:45:51.112Z,9.52
2022-09-20T09:48:19.942Z,9.75
2022-09-20T09:50:48.440Z,6.82
2022-09-20T09:53:23.222Z,7.13
2022-09-20T09:56:14.201Z,6.47
2022-09-20T09:58:52.006Z,7.63
2022-09-20T10:01:39.554Z,8.10
2022-09-20T10:04:26.126Z,5.85
2022-09-20T10:06:53.295Z,6.40
2022-09-20T10:09:26.879Z,5.18
2022-09-20T10:12:03.172Z,4.32
2022-09-20T10:14:38.816Z,2.55
2022-09-20T10:17:18.025Z,5.85
2022-09-20T10:20:06.271Z,3.08
2022-09-20T10:22:41.862Z,5.68
2022-09-20T10:25:23.133Z,4.85
2022-09-20T10:30:23.113Z,4.40
2022-09-20T10:33:09.930Z,4.28
2022-09-20T10:35:55.833Z,4.00
2022-09-20T10:38:26.410Z,5.10
2022-09-20T10:41:12.004Z,4.82
2022-09-20T10:44:05.152Z,4.88
2022-09-20T10:46:35.564Z,7.40
2022-09-20T10:49:25.112Z,5.03
2022-09-20T10:51:55.129Z,5.13
2022-09-20T10:54:41.321Z,6.82
2022-09-20T10:57:26.910Z,4.22
2022-09-20T11:00:04.949Z,6.03
2022-09-20T11:02:46.927Z,5.72
2022-09-20T11:05:16.968Z,4.43
2022-09-20T11:07:53.433Z,6.40
2022-09-20T11:10:29.153Z,4.07
2022-09-20T11:13:25.863Z,5.78
2022-09-20T11:16:11.868Z,10.40
2022-09-20T11:18:41.814Z,13.98
2022-09-20T11:21:22.111Z,22.85
2022-09-20T11:23:52.343Z,22.33
2022-09-20T11:26:23.448Z,27.47
2022-09-20T11:28:54.016Z,17.73
2022-09-20T11:31:26.187Z,25.30
2022-09-20T11:34:12.260Z,24.10
2022-09-20T11:36:59.117Z,23.42
2022-09-20T11:39:29.755Z,21.02
2022-09-20T11:42:00.496Z,17.77
2022-09-20T11:44:27.779Z,16.67
2022-09-20T11:47:42.807Z,13.40
2022-09-20T11:50:29.229Z,15.57
2022-09-20T11:53:05.603Z,15.65
2022-09-20T11:55:42.794Z,13.45
2022-09-20T11:58:16.784Z,15.15
2022-09-20T12:00:46.137Z,12.57
2022-09-20T12:03:32.341Z,13.63
2022-09-20T12:06:03.785Z,9.38
2022-09-20T12:08:38.284Z,9.80
2022-09-20T12:11:14.022Z,11.20
2022-09-20T12:13:42.736Z,11.65
2022-09-20T12:16:14.702Z,12.82
2022-09-20T12:18:56.878Z,10.70
2022-09-20T12:21:24.068Z,9.30
2022-09-20T12:23:54.218Z,11.13
2022-09-20T12:26:21.711Z,8.57
2022-09-20T12:28:51.838Z,8.23
2022-09-20T12:31:22.011Z,9.80
2022-09-20T12:34:10.913Z,7.27
2022-09-20T12:36:39.387Z,7.97
2022-09-20T12:39:15.161Z,8.68
2022-09-20T12:41:56.134Z,8.45
2022-09-20T12:44:35.322Z,11.90
2022-09-20T12:47:06.141Z,16.92
2022-09-20T12:49:57.015Z,12.80
2022-09-20T12:52:48.702Z,25.27
2022-09-20T12:55:30.798Z,23.20
2022-09-20T12:58:06.149Z,24.15
2022-09-20T13:00:39.465Z,27.35
2022-09-20T13:03:28.524Z,23.48
2022-09-20T13:06:13.704Z,27.90
2022-09-20T13:08:59.654Z,21.75
2022-09-20T13:11:41.905Z,16.42
2022-09-20T13:14:09.157Z,19.58
2022-09-20T13:16:51.605Z,11.57
2022-09-20T13:19:29.452Z,13.73
2022-09-20T13:21:58.869Z,11.70
2022-09-20T13:24:27.399Z,14.80
2022-09-20T13:26:56.562Z,13.00
2022-09-20T13:29:27.529Z,9.50
2022-09-20T13:31:56.386Z,8.95
2022-09-20T13:34:24.976Z,8.30
2022-09-20T13:36:56.157Z,8.57
2022-09-20T13:39:25.455Z,8.93
2022-09-20T13:41:53.050Z,7.82
2022-09-20T13:44:20.621Z,12.88
2022-09-20T13:46:47.868Z,6.38
2022-09-20T13:49:23.720Z,10.55
2022-09-20T13:51:51.348Z,13.15
2022-09-20T13:54:19.992Z,8.10
2022-09-20T13:56:47.775Z,8.20
2022-09-20T13:59:19.654Z,11.57
2022-09-20T14:01:54.425Z,8.80
2022-09-20T14:04:23.249Z,7.43
2022-09-20T14:06:51.965Z,7.13
2022-09-20T14:09:30.229Z,7.32
2022-09-20T14:11:58.989Z,6.57
2022-09-20T14:14:26.369Z,8.80
2022-09-20T14:16:54.994Z,8.02
2022-09-20T14:19:24.166Z,7.32
2022-09-20T14:21:51.457Z,9.32
2022-09-20T14:24:18.727Z,11.23
2022-09-20T14:27:00.579Z,9.65
2022-09-20T14:29:30.886Z,9.35
2022-09-20T14:31:59.936Z,7.37
2022-09-20T14:34:27.192Z,8.75
2022-09-20T14:37:03.350Z,10.23
2022-09-20T14:39:30.468Z,9.77
2022-09-20T14:41:57.661Z,7.70
2022-09-20T14:44:24.965Z,9.20
2022-09-20T14:46:52.139Z,7.13
2022-09-20T14:49:20.722Z,8.80
2022-09-20T14:51:48.477Z,10.95
2022-09-20T14:54:24.214Z,8.32
2022-09-20T14:56:53.208Z,10.75
2022-09-20T14:59:21.106Z,10.05
2022-09-20T15:02:17.960Z,8.88
2022-09-20T15:05:11.957Z,9.25
2022-09-20T15:07:39.217Z,10.27
2022-09-20T15:10:12.301Z,9.90
2022-09-20T15:12:39.553Z,11.75
2022-09-20T15:15:07.094Z,11.45
2022-09-20T15:17:34.218Z,8.95
2022-09-20T15:20:01.538Z,10.15
2022-09-20T15:22:30.045Z,10.95
2022-09-20T15:24:57.160Z,9.70
2022-09-20T15:27:28.193Z,11.07
2022-09-20T15:29:56.061Z,8.85
2022-09-20T15:32:23.178Z,9.82
2022-09-20T15:34:50.438Z,11.48
2022-09-20T15:37:17.621Z,10.38
2022-09-20T15:39:45.014Z,10.45
2022-09-20T15:42:12.357Z,12.30
2022-09-20T15:44:39.484Z,11.02
2022-09-20T15:47:06.634Z,10.15
2022-09-20T15:49:33.806Z,9.10
2022-09-20T15:52:02.311Z,11.93
2022-09-20T15:54:29.471Z,9.23
2022-09-20T15:56:56.842Z,10.02
2022-09-20T15:59:23.944Z,9.07
2022-09-20T16:01:51.712Z,10.43
2022-09-20T16:04:19.831Z,10.52
2022-09-20T16:06:48.341Z,11.10
2022-09-20T16:09:15.537Z,11.95
2022-09-20T16:11:42.813Z,10.10
2022-09-20T16:14:09.926Z,11.40
2022-09-20T16:16:40.460Z,9.57
2022-09-20T16:19:17.417Z,11.00
2022-09-20T16:21:47.079Z,11.65
2022-09-20T16:24:14.224Z,11.43
2022-09-20T16:26:41.531Z,11.43
2022-09-20T16:29:08.757Z,9.07
2022-09-20T16:31:36.936Z,11.32
2022-09-20T16:34:05.426Z,11.23
2022-09-20T16:36:33.259Z,11.15
2022-09-20T16:39:01.181Z,14.40
2022-09-20T16:41:29.114Z,20.15
2022-09-20T16:43:56.613Z,16.63
2022-09-20T16:46:27.366Z,16.55
2022-09-20T16:48:55.262Z,14.02
2022-09-20T16:51:24.675Z,12.35
2022-09-20T16:53:54.934Z,13.27
2022-09-20T16:56:22.182Z,13.83
2022-09-20T16:58:49.481Z,9.70
2022-09-20T17:01:17.068Z,10.10
2022-09-20T17:03:44.896Z,8.85
2022-09-20T17:06:12.674Z,9.95
2022-09-20T17:08:40.084Z,11.60
2022-09-20T17:11:11.886Z,10.55
2022-09-20T17:13:39.563Z,10.73
2022-09-20T17:16:11.028Z,12.00
2022-09-20T17:18:44.281Z,7.82
2022-09-20T17:21:13.879Z,10.45
2022-09-20T17:23:41.756Z,8.85
2022-09-20T17:26:11.723Z,7.65
2022-09-20T17:28:39.910Z,8.65
2022-09-20T17:31:08.285Z,8.57
2022-09-20T17:33:36.473Z,7.75
2022-09-20T17:36:04.462Z,7.85
2022-09-20T17:38:36.356Z,6.80
2022-09-20T17:41:03.500Z,6.38
2022-09-20T17:43:31.265Z,8.13
2022-09-20T17:46:12.821Z,6.93
2022-09-20T17:48:40.532Z,7.65
2022-09-20T17:51:12.212Z,6.80
2022-09-20T17:53:39.740Z,6.97
2022-09-20T17:56:06.886Z,6.68
2022-09-20T17:58:37.873Z,7.50
2022-09-20T18:01:11.009Z,9.02
2022-09-20T18:03:40.752Z,5.60
2022-09-20T18:06:17.200Z,6.10
2022-09-20T18:08:51.155Z,7.25
2022-09-20T18:11:19.587Z,5.22
2022-09-20T18:13:46.696Z,5.53
2022-09-20T18:16:14.932Z,8.85
2022-09-20T18:18:43.658Z,7.32
2022-09-20T18:21:14.939Z,8.68
2022-09-20T18:26:22.691Z,7.78
2022-09-20T18:28:56.771Z,7.90
2022-09-20T18:31:28.411Z,9.90
2022-09-20T18:33:56.085Z,8.77
2022-09-20T18:36:25.532Z,9.40
2022-09-20T18:38:57.097Z,8.85
2022-09-20T18:41:28.575Z,10.27
2022-09-20T18:43:56.742Z,11.65
2022-09-20T18:46:25.123Z,10.95
2022-09-20T18:48:52.810Z,12.27
2022-09-20T18:51:20.267Z,11.52
2022-09-20T18:53:48.113Z,13.95
2022-09-20T18:56:15.242Z,12.93
2022-09-20T18:58:44.664Z,10.50
2022-09-20T19:01:13.296Z,9.80
2022-09-20T19:03:59.314Z,10.25
2022-09-20T19:06:29.799Z,8.85
2022-09-20T19:09:01.742Z,8.95
2022-09-20T19:11:33.781Z,7.82
2022-09-20T19:14:07.433Z,8.60
2022-09-20T19:16:37.099Z,7.43
2022-09-20T19:19:22.827Z,7.32
2022-09-20T19:21:58.029Z,7.03
2022-09-20T19:24:40.268Z,6.95
2022-09-20T19:27:09.693Z,7.22
2022-09-20T19:29:37.773Z,8.27
2022-09-20T19:32:05.219Z,6.97
2022-09-20T19:34:32.963Z,6.57
2022-09-20T19:37:09.046Z,7.00
2022-09-20T19:39:55.026Z,6.53
2022-09-20T19:42:22.121Z,6.50
2022-09-20T19:44:59.640Z,7.30
2022-09-20T19:47:34.696Z,7.35
2022-09-20T19:50:15.906Z,6.60
2022-09-20T19:52:43.942Z,7.40
2022-09-20T19:55:12.520Z,7.18
2022-09-20T19:57:44.346Z,6.75
2022-09-20T20:00:14.618Z,7.88
2022-09-20T20:02:45.826Z,10.07
2022-09-20T20:07:47.582Z,6.07
2022-09-20T20:10:18.436Z,5.43
2022-09-20T20:13:04.346Z,6.15
2022-09-20T20:15:37.604Z,5.70
2022-09-20T20:18:21.189Z,5.28
2022-09-20T20:20:53.427Z,5.43
2022-09-20T20:23:39.858Z,6.30
2022-09-20T20:26:10.087Z,6.82
2022-09-20T20:28:38.588Z,6.95
2022-09-20T20:31:07.130Z,5.63
2022-09-20T20:33:34.300Z,5.15
2022-09-20T20:36:02.230Z,4.85
2022-09-20T20:38:30.252Z,5.60
2022-09-20T20:41:04.402Z,4.75
2022-09-20T20:43:36.321Z,4.80
2022-09-20T20:46:03.924Z,4.35
2022-09-20T20:48:31.160Z,5.40
2022-09-20T20:51:02.638Z,5.32
2022-09-20T20:53:30.463Z,6.63
2022-09-20T20:56:01.515Z,4.82
2022-09-20T20:58:35.038Z,5.97
2022-09-20T21:01:21.511Z,5.95
2022-09-20T21:03:49.918Z,6.22
2022-09-20T21:06:17.637Z,6.25
2022-09-20T21:08:49.352Z,6.28
2022-09-20T21:11:29.770Z,5.07
2022-09-20T21:13:57.950Z,5.60
2022-09-20T21:16:29.861Z,5.63
2022-09-20T21:18:57.444Z,5.07
2022-09-20T21:21:25.977Z,4.85
2022-09-20T21:24:00.149Z,4.45
2022-09-20T21:26:28.359Z,4.25
2022-09-20T21:28:59.030Z,3.85
2022-09-20T21:31:30.397Z,2.97
2022-09-20T21:33:57.865Z,3.90
2022-09-20T21:36:26.906Z,4.35
2022-09-20T21:38:54.200Z,3.00
2022-09-20T21:41:25.323Z,4.82
2022-09-20T21:43:54.884Z,3.22
2022-09-20T21:46:29.229Z,3.95
2022-09-20T21:48:57.324Z,4.47
2022-09-20T21:51:25.051Z,6.40
2022-09-20T21:53:59.486Z,4.10
2022-09-20T21:56:27.661Z,3.60
2022-09-20T21:58:54.829Z,3.63
2022-09-20T22:01:25.960Z,5.28
2022-09-20T22:06:21.332Z,4.50
2022-09-20T22:08:59.030Z,4.07
2022-09-20T22:11:27.314Z,4.43
2022-09-20T22:13:55.134Z,3.58
2022-09-20T22:16:23.572Z,3.53
2022-09-20T22:18:51.113Z,4.00
2022-09-20T22:21:19.906Z,3.08
2022-09-20T22:23:50.945Z,5.00
2022-09-20T22:26:19.203Z,3.90
2022-09-20T22:28:49.778Z,3.53
2022-09-20T22:31:18.604Z,3.80
2022-09-20T22:33:46.995Z,3.60
2022-09-20T22:36:15.520Z,3.50
2022-09-20T22:38:43.590Z,3.28
2022-09-20T22:41:11.302Z,4.18
2022-09-20T22:43:38.806Z,3.47
2022-09-20T22:46:09.965Z,4.15
2022-09-20T22:51:09.044Z,3.65
2022-09-20T22:53:36.606Z,4.97
2022-09-20T22:56:09.697Z,4.68
2022-09-20T22:58:40.992Z,4.70
2022-09-20T23:03:35.627Z,5.95
2022-09-20T23:06:03.309Z,5.93
2022-09-20T23:08:33.314Z,4.78
2022-09-20T23:11:01.377Z,5.88
2022-09-20T23:13:28.621Z,8.98
2022-09-20T23:15:55.766Z,7.82
2022-09-20T23:18:22.929Z,7.03
2022-09-20T23:20:58.464Z,4.68
2022-09-20T23:23:25.651Z,5.78
2022-09-20T23:25:55.081Z,7.10
2022-09-20T23:28:26.811Z,6.03
2022-09-20T23:30:54.309Z,5.80
2022-09-20T23:33:21.635Z,6.68
2022-09-20T23:35:48.952Z,7.25
2022-09-20T23:38:16.041Z,6.25
2022-09-20T23:40:43.372Z,6.75
2022-09-20T23:43:10.597Z,5.50
2022-09-20T23:45:37.749Z,4.85
2022-09-20T23:48:04.957Z,5.47
2022-09-20T23:50:32.141Z,6.57
2022-09-20T23:52:59.249Z,6.28
2022-09-20T23:55:26.412Z,7.88
2022-09-20T23:57:59.801Z,6.38
